Time;durP1;ratioP1;P1;durP2;ratioP2;P2;SDS_P1;SDS_P2;PMS_P1;PMS_P2;Temp;Humidity;BMP_temperature;BMP_pressure;BME280_temperature;BME280_humidity;BME280_pressure;Samples;Min_cycle;Max_cycle;Signal;HPM_P1;HPM_P2
2023/09/18 00:01:54;;;;;;;;;;;;;;;;;;5096832;28;19922;-78
2023/09/18 00:04:19;;;;;;;;;;;;;;;;;;5096653;28;20386;-78
2023/09/18 00:06:44;;;;;;;;;;;;;;;;;;5090984;28;19920;-77
2023/09/18 00:09:13;;;;;;;;;;;;;;;;;;5090790;28;19911;-77
2023/09/18 00:11:38;;;;;;;;;;;;;;;;;;5091000;28;20010;-77
2023/09/18 00:14:04;;;;;;;;;;;;;;;;;;5083977;28;20342;-77
2023/09/18 00:16:29;;;;;;;;;;;;;;;;;;5091059;28;19922;-77
2023/09/18 00:18:54;;;;;;;;;;;;;;;;;;5090776;28;19908;-77
2023/09/18 00:21:19;;;;;;;;;;;;;;;;;;5090921;28;19919;-77
2023/09/18 00:23:46;;;;;;;;;;;;;;;;;;5089581;28;20320;-77
2023/09/18 00:26:11;;;;;;;;;;;;;;;;;;5090584;28;19965;-77
2023/09/18 00:28:37;;;;;;;;;;;;;;;;;;5090168;28;19916;-76
2023/09/18 00:31:02;;;;;;;;;;;;;;;;;;5099362;28;19998;-77
2023/09/18 00:33:28;;;;;;;;;;;;;;;;;;5089267;28;20293;-76
2023/09/18 00:35:53;;;;;;;;;;;;;;;;;;5072807;28;19962;-77
2023/09/18 00:38:19;;;;;;;;;;;;;;;;;;5094858;28;19954;-77
2023/09/18 00:40:44;;;;;;;;;;;;;;;;;;5089693;28;19912;-77
2023/09/18 00:43:10;;;;;;;;;;;;;;;;;;5094640;28;19908;-77
2023/09/18 00:45:36;;;;;;;;;;;;;;;;;;5091039;28;19919;-77
2023/09/18 00:48:01;;;;;;;;;;;;;;;;;;5090369;28;19912;-77
2023/09/18 00:50:27;;;;;;;;;;;;;;;;;;5073129;28;20004;-77
2023/09/18 00:52:52;;;;;;;;;;;;;;;;;;5092664;28;19908;-77
2023/09/18 00:55:18;;;;;;;;;;;;;;;;;;5094768;28;19912;-77
2023/09/18 00:57:43;;;;;;;;;;;;;;;;;;5094248;28;19998;-77
2023/09/18 01:00:09;;;;;;;;;;;;;;;;;;5092973;28;19975;-76
2023/09/18 01:02:34;;;;;;;;;;;;;;;;;;5088686;28;19908;-77
2023/09/18 01:04:59;;;;;;;;;;;;;;;;;;5103955;27;20002;-77
2023/09/18 01:07:25;;;;;;;;;;;;;;;;;;5094137;28;19919;-77
2023/09/18 01:09:50;;;;;;;;;;;;;;;;;;5093935;28;19942;-77
2023/09/18 01:12:15;;;;;;;;;;;;;;;;;;5109975;28;19915;-77
2023/09/18 01:14:41;;;;;;;;;;;;;;;;;;5087259;28;19912;-77
2023/09/18 01:17:07;;;;;;;;;;;;;;;;;;5093948;28;19957;-77
2023/09/18 01:19:33;;;;;;;;;;;;;;;;;;5095444;28;19919;-77
2023/09/18 01:21:58;;;;;;;;;;;;;;;;;;5093110;28;19912;-77
2023/09/18 01:24:24;;;;;;;;;;;;;;;;;;5093655;28;19956;-77
2023/09/18 01:26:49;;;;;;;;;;;;;;;;;;5093252;28;19959;-77
2023/09/18 01:29:15;;;;;;;;;;;;;;;;;;5109620;28;19998;-77
2023/09/18 01:31:40;;;;;;;;;;;;;;;;;;5094740;28;19970;-77
2023/09/18 01:34:06;;;;;;;;;;;;;;;;;;5105010;28;19998;-77
2023/09/18 01:36:32;;;;;;;;;;;;;;;;;;5093305;28;20049;-77
2023/09/18 01:38:57;;;;;;;;;;;;;;;;;;5093298;28;19919;-77
2023/09/18 01:41:22;;;;;;;;;;;;;;;;;;5093513;28;20323;-77
2023/09/18 01:43:48;;;;;;;;;;;;;;;;;;5093414;28;19912;-77
2023/09/18 01:46:13;;;;;;;;;;;;;;;;;;5096536;28;19908;-77
2023/09/18 01:48:39;;;;;;;;;;;;;;;;;;5093284;28;19920;-77
2023/09/18 01:51:04;;;;;;;;;;;;;;;;;;5093861;28;19912;-77
2023/09/18 01:53:30;;;;;;;;;;;;;;;;;;5082021;28;19912;-77
2023/09/18 01:55:56;;;;;;;;;;;;;;;;;;5093052;28;19908;-77
2023/09/18 01:58:21;;;;;;;;;;;;;;;;;;5102284;28;20279;-77
2023/09/18 02:00:47;;;;;;;;;;;;;;;;;;5085807;28;19908;-77
2023/09/18 02:03:12;;;;;;;;;;;;;;;;;;5091107;28;19913;-77
2023/09/18 02:05:37;;;;;;;;;;;;;;;;;;5098379;27;19912;-77
2023/09/18 02:08:03;;;;;;;;;;;;;;;;;;5097757;27;19922;-77
2023/09/18 02:10:28;;;;;;;;;;;;;;;;;;5096993;28;19908;-77
2023/09/18 02:12:54;;;;;;;;;;;;;;;;;;5113712;27;19916;-77
2023/09/18 02:15:19;;;;;;;;;;;;;;;;;;5086751;28;19918;-77
2023/09/18 02:18:09;;;;;;;;;;;;;;;;;;5093713;28;19966;-77
2023/09/18 02:20:35;;;;;;;;;;;;;;;;;;5092899;28;20378;-78
2023/09/18 02:23:00;;;;;;;;;;;;;;;;;;5073518;28;20359;-76
2023/09/18 02:25:26;;;;;;;;;;;;;;;;;;5074260;28;20010;-76
2023/09/18 02:27:51;;;;;;;;;;;;;;;;;;5092385;28;20656;-76
2023/09/18 02:30:19;;;;;;;;;;;;;;;;;;5091987;28;19911;-76
2023/09/18 02:32:44;;;;;;;;;;;;;;;;;;5092394;28;19908;-76
2023/09/18 02:35:09;;;;;;;;;;;;;;;;;;5104311;28;19965;-77
2023/09/18 02:37:35;;;;;;;;;;;;;;;;;;5099962;28;19908;-76
2023/09/18 02:40:00;;;;;;;;;;;;;;;;;;5090914;28;19912;-76
2023/09/18 02:42:25;;;;;;;;;;;;;;;;;;5090946;28;19908;-76
2023/09/18 02:44:51;;;;;;;;;;;;;;;;;;5090497;28;19951;-76
2023/09/18 02:47:16;;;;;;;;;;;;;;;;;;5091679;28;19934;-76
2023/09/18 02:49:41;;;;;;;;;;;;;;;;;;5090196;28;19961;-76
2023/09/18 02:52:07;;;;;;;;;;;;;;;;;;5107691;28;19908;-76
2023/09/18 02:54:32;;;;;;;;;;;;;;;;;;5091809;28;20006;-76
2023/09/18 02:56:58;;;;;;;;;;;;;;;;;;5103105;28;19971;-76
2023/09/18 02:59:23;;;;;;;;;;;;;;;;;;5088435;28;19916;-76
2023/09/18 03:01:49;;;;;;;;;;;;;;;;;;5092056;28;20310;-76
2023/09/18 03:04:14;;;;;;;;;;;;;;;;;;5090350;28;19912;-76
2023/09/18 03:06:40;;;;;;;;;;;;;;;;;;5104638;28;20387;-76
2023/09/18 03:09:05;;;;;;;;;;;;;;;;;;5087407;28;20389;-76
2023/09/18 03:11:30;;;;;;;;;;;;;;;;;;5107374;28;19908;-76
2023/09/18 03:13:56;;;;;;;;;;;;;;;;;;5089901;28;20072;-76
2023/09/18 03:16:21;;;;;;;;;;;;;;;;;;5107350;28;19912;-77
2023/09/18 03:18:47;;;;;;;;;;;;;;;;;;5090690;28;19918;-78
2023/09/18 03:21:12;;;;;;;;;;;;;;;;;;5095779;28;20290;-76
2023/09/18 03:23:38;;;;;;;;;;;;;;;;;;5089098;28;19912;-76
2023/09/18 03:26:03;;;;;;;;;;;;;;;;;;5091802;28;20310;-76
2023/09/18 03:28:29;;;;;;;;;;;;;;;;;;5089587;28;20380;-76
2023/09/18 03:30:54;;;;;;;;;;;;;;;;;;5090404;28;19912;-78
2023/09/18 03:33:22;;;;;;;;;;;;;;;;;;5090313;28;20027;-78
2023/09/18 03:35:48;;;;;;;;;;;;;;;;;;5091725;28;19995;-78
2023/09/18 03:38:13;;;;;;;;;;;;;;;;;;5090066;28;19912;-76
2023/09/18 03:40:39;;;;;;;;;;;;;;;;;;5091477;28;20735;-79
2023/09/18 03:43:04;;;;;;;;;;;;;;;;;;5073849;28;19919;-78
2023/09/18 03:45:29;;;;;;;;;;;;;;;;;;5091283;28;19914;-78
2023/09/18 03:47:55;;;;;;;;;;;;;;;;;;5089958;28;19923;-78
2023/09/18 03:50:21;;;;;;;;;;;;;;;;;;5089956;28;19908;-78
2023/09/18 03:52:46;;;;;;;;;;;;;;;;;;5091238;28;19911;-78
2023/09/18 03:55:11;;;;;;;;;;;;;;;;;;5107224;28;19908;-78
2023/09/18 03:57:37;;;;;;;;;;;;;;;;;;5091906;28;19912;-78
2023/09/18 04:00:02;;;;;;;;;;;;;;;;;;5114870;28;19908;-78
2023/09/18 04:02:37;;;;;;;;;;;;;;;;;;5090049;28;19912;-78
2023/09/18 04:05:03;;;;;;;;;;;;;;;;;;5090685;28;19916;-78
2023/09/18 04:07:28;;;;;;;;;;;;;;;;;;5106636;28;19936;-78
2023/09/18 04:09:54;;;;;;;;;;;;;;;;;;5107200;28;20020;-78
2023/09/18 04:12:19;;;;;;;;;;;;;;;;;;5091001;28;20404;-78
2023/09/18 04:14:44;;;;;;;;;;;;;;;;;;5106372;28;19916;-78
2023/09/18 04:17:10;;;;;;;;;;;;;;;;;;5107902;28;19907;-78
2023/09/18 04:19:35;;;;;;;;;;;;;;;;;;5088989;28;19931;-89
2023/09/18 04:22:01;;;;;;;;;;;;;;;;;;5093129;28;19911;-88
2023/09/18 04:24:26;;;;;;;;;;;;;;;;;;5092240;28;20303;-89
2023/09/18 04:26:51;;;;;;;;;;;;;;;;;;5077233;28;19958;-89
2023/09/18 04:29:17;;;;;;;;;;;;;;;;;;5097135;28;19928;-87
2023/09/18 04:31:42;;;;;;;;;;;;;;;;;;5096560;28;20677;-88
2023/09/18 04:34:08;;;;;;;;;;;;;;;;;;5105196;28;19912;-87
2023/09/18 04:36:33;;;;;;;;;;;;;;;;;;5091860;28;20237;-88
2023/09/18 04:38:58;;;;;;;;;;;;;;;;;;5078885;28;20405;-89
2023/09/18 04:41:24;;;;;;;;;;;;;;;;;;5095999;28;19914;-88
2023/09/18 04:43:51;;;;;;;;;;;;;;;;;;5105972;27;19912;-88
2023/09/18 04:46:17;;;;;;;;;;;;;;;;;;5103783;28;19907;-89
2023/09/18 04:48:43;;;;;;;;;;;;;;;;;;5095120;28;20268;-86
2023/09/18 04:51:08;;;;;;;;;;;;;;;;;;5096262;28;19954;-87
2023/09/18 04:53:33;;;;;;;;;;;;;;;;;;5095783;28;20015;-87
2023/09/18 04:55:59;;;;;;;;;;;;;;;;;;5090394;28;20355;-86
2023/09/18 04:58:25;;;;;;;;;;;;;;;;;;5096397;27;20268;-86
2023/09/18 05:00:50;;;;;;;;;;;;;;;;;;5092918;28;19915;-88
2023/09/18 05:03:16;;;;;;;;;;;;;;;;;;5111068;28;19919;-87
2023/09/18 05:05:44;;;;;;;;;;;;;;;;;;5112454;28;19939;-87
2023/09/18 05:08:09;;;;;;;;;;;;;;;;;;5096521;28;19923;-88
2023/09/18 05:10:34;;;;;;;;;;;;;;;;;;5079191;28;19912;-87
2023/09/18 05:12:59;;;;;;;;;;;;;;;;;;5096553;28;19908;-88
2023/09/18 05:15:34;;;;;;;;;;;;;;;;;;5094924;28;20313;-87
2023/09/18 05:17:59;;;;;;;;;;;;;;;;;;5106458;28;19916;-88
2023/09/18 05:20:25;;;;;;;;;;;;;;;;;;5093615;28;19915;-88
2023/09/18 05:22:50;;;;;;;;;;;;;;;;;;5095345;28;19912;-88
2023/09/18 05:25:15;;;;;;;;;;;;;;;;;;5096890;28;19958;-89
2023/09/18 05:27:44;;;;;;;;;;;;;;;;;;5096219;28;19927;-86
2023/09/18 05:30:09;;;;;;;;;;;;;;;;;;5096185;28;19912;-87
2023/09/18 05:32:34;;;;;;;;;;;;;;;;;;5102587;28;19960;-87
2023/09/18 05:35:04;;;;;;;;;;;;;;;;;;5096904;28;19912;-86
2023/09/18 05:37:30;;;;;;;;;;;;;;;;;;5095122;28;19911;-86
2023/09/18 05:39:55;;;;;;;;;;;;;;;;;;5093675;28;19915;-87
2023/09/18 05:42:21;;;;;;;;;;;;;;;;;;5096598;28;20002;-87
2023/09/18 05:44:46;;;;;;;;;;;;;;;;;;5106890;28;20297;-87
2023/09/18 05:47:12;;;;;;;;;;;;;;;;;;5096812;28;19916;-88
2023/09/18 05:49:38;;;;;;;;;;;;;;;;;;5096529;28;19908;-87
2023/09/18 05:52:03;;;;;;;;;;;;;;;;;;5096994;28;19977;-88
2023/09/18 05:54:28;;;;;;;;;;;;;;;;;;5079077;28;19919;-87
2023/09/18 05:56:54;;;;;;;;;;;;;;;;;;5095034;28;20290;-87
2023/09/18 05:59:20;;;;;;;;;;;;;;;;;;5095844;28;20374;-86
2023/09/18 06:01:45;;;;;;;;;;;;;;;;;;5090752;28;20375;-87
2023/09/18 06:04:10;;;;;;;;;;;;;;;;;;5095787;28;19912;-87
2023/09/18 06:06:36;;;;;;;;;;;;;;;;;;5097188;28;19916;-88
2023/09/18 06:09:01;;;;;;;;;;;;;;;;;;5096599;28;19922;-87
2023/09/18 06:11:27;;;;;;;;;;;;;;;;;;5091833;28;19946;-87
2023/09/18 06:13:52;;;;;;;;;;;;;;;;;;5094380;28;19915;-87
2023/09/18 06:16:17;;;;;;;;;;;;;;;;;;5092869;28;20340;-87
2023/09/18 06:18:44;;;;;;;;;;;;;;;;;;5094202;28;20282;-87
2023/09/18 06:21:09;;;;;;;;;;;;;;;;;;5091272;28;19965;-87
2023/09/18 06:23:35;;;;;;;;;;;;;;;;;;5094883;28;19912;-87
2023/09/18 06:26:01;;;;;;;;;;;;;;;;;;5085842;28;20410;-87
2023/09/18 06:28:27;;;;;;;;;;;;;;;;;;5082232;28;20018;-86
2023/09/18 06:30:54;;;;;;;;;;;;;;;;;;5085195;28;19966;-88
2023/09/18 06:33:19;;;;;;;;;;;;;;;;;;5096070;28;19918;-88
2023/09/18 06:35:48;;;;;;;;;;;;;;;;;;5094750;28;19941;-86
2023/09/18 06:38:15;;;;;;;;;;;;;;;;;;5068901;28;19909;-87
2023/09/18 06:40:40;;;;;;;;;;;;;;;;;;5107811;27;19898;-87
2023/09/18 06:43:05;;;;;;;;;;;;;;;;;;5097953;28;19991;-88
2023/09/18 06:45:32;;;;;;;;;;;;;;;;;;5107169;27;19934;-87
2023/09/18 06:47:57;;;;;;;;;;;;;;;;;;5082206;28;20311;-88
2023/09/18 06:50:23;;;;;;;;;;;;;;;;;;5109836;27;19923;-87
2023/09/18 06:52:49;;;;;;;;;;;;;;;;;;5086521;28;19914;-87
2023/09/18 06:55:16;;;;;;;;;;;;;;;;;;5093377;28;19919;-87
2023/09/18 06:57:41;;;;;;;;;;;;;;;;;;5096247;28;19911;-88
2023/09/18 07:00:07;;;;;;;;;;;;;;;;;;5094687;28;20378;-87
2023/09/18 07:02:32;;;;;;;;;;;;;;;;;;5096109;28;19912;-87
2023/09/18 07:04:58;;;;;;;;;;;;;;;;;;5095006;28;19919;-88
2023/09/18 07:07:25;;;;;;;;;;;;;;;;;;5103225;28;20286;-88
2023/09/18 07:09:50;;;;;;;;;;;;;;;;;;5093989;28;20375;-88
2023/09/18 07:12:15;;;;;;;;;;;;;;;;;;5094262;28;19911;-87
2023/09/18 07:14:41;;;;;;;;;;;;;;;;;;5092496;28;19912;-88
2023/09/18 07:17:06;;;;;;;;;;;;;;;;;;5093661;28;20278;-88
2023/09/18 07:19:32;;;;;;;;;;;;;;;;;;5092996;28;20151;-86
2023/09/18 07:21:57;;;;;;;;;;;;;;;;;;5092758;28;20029;-89
2023/09/18 07:24:22;;;;;;;;;;;;;;;;;;5076734;28;19919;-88
2023/09/18 07:26:48;;;;;;;;;;;;;;;;;;5095688;28;19916;-89
2023/09/18 07:29:14;;;;;;;;;;;;;;;;;;5083028;28;19916;-88
2023/09/18 07:31:41;;;;;;;;;;;;;;;;;;5092953;28;20348;-88
2023/09/18 07:34:06;;;;;;;;;;;;;;;;;;5092738;28;19904;-86
2023/09/18 07:36:32;;;;;;;;;;;;;;;;;;5092588;28;20366;-87
2023/09/18 07:38:57;;;;;;;;;;;;;;;;;;5083102;28;19919;-88
2023/09/18 07:41:22;;;;;;;;;;;;;;;;;;5093955;28;19954;-87
2023/09/18 07:43:48;;;;;;;;;;;;;;;;;;5086174;28;19947;-87
2023/09/18 07:46:13;;;;;;;;;;;;;;;;;;5093877;28;19915;-88
2023/09/18 07:48:38;;;;;;;;;;;;;;;;;;5097839;28;19948;-88
2023/09/18 07:51:04;;;;;;;;;;;;;;;;;;5104978;28;19956;-88
2023/09/18 07:53:29;;;;;;;;;;;;;;;;;;5093818;28;19912;-88
2023/09/18 07:55:55;;;;;;;;;;;;;;;;;;5108822;28;19990;-87
2023/09/18 07:58:20;;;;;;;;;;;;;;;;;;5095314;28;20380;-88
2023/09/18 08:00:45;;;;;;;;;;;;;;;;;;5096847;28;19907;-89
2023/09/18 08:03:11;;;;;;;;;;;;;;;;;;5098150;28;20428;-89
2023/09/18 08:05:36;;;;;;;;;;;;;;;;;;5092381;28;20263;-88
2023/09/18 08:08:05;;;;;;;;;;;;;;;;;;5098486;28;20047;-88
2023/09/18 08:10:30;;;;;;;;;;;;;;;;;;5097278;28;20588;-89
2023/09/18 08:12:55;;;;;;;;;;;;;;;;;;5098948;28;20018;-88
2023/09/18 08:15:21;;;;;;;;;;;;;;;;;;5098077;28;19915;-88
2023/09/18 08:18:11;;;;;;;;;;;;;;;;;;5097238;28;19961;-88
2023/09/18 08:20:37;;;;;;;;;;;;;;;;;;5106417;28;19912;-89
2023/09/18 08:23:03;;;;;;;;;;;;;;;;;;5089878;28;20429;-88
2023/09/18 08:25:28;;;;;;;;;;;;;;;;;;5093703;28;19924;-88
2023/09/18 08:27:53;;;;;;;;;;;;;;;;;;5095160;28;20307;-88
2023/09/18 08:30:20;;;;;;;;;;;;;;;;;;5098126;28;19916;-89
2023/09/18 08:32:46;;;;;;;;;;;;;;;;;;5095779;28;19908;-80
2023/09/18 08:35:11;;;;;;;;;;;;;;;;;;5096565;28;20351;-80
2023/09/18 08:37:36;;;;;;;;;;;;;;;;;;5096121;28;19908;-80
2023/09/18 08:40:09;;;;;;;;;;;;;;;;;;5096571;28;19912;-80
2023/09/18 08:42:34;;;;;;;;;;;;;;;;;;5099380;27;19913;-80
2023/09/18 08:44:59;;;;;;;;;;;;;;;;;;5094032;28;19965;-80
2023/09/18 08:47:25;;;;;;;;;;;;;;;;;;5092844;28;19959;-80
2023/09/18 08:49:50;;;;;;;;;;;;;;;;;;5093223;28;19914;-80
2023/09/18 08:52:16;;;;;;;;;;;;;;;;;;5096089;28;19965;-79
2023/09/18 08:54:41;;;;;;;;;;;;;;;;;;5077096;28;19908;-80
2023/09/18 08:57:07;;;;;;;;;;;;;;;;;;5111803;28;19912;-80
2023/09/18 08:59:32;;;;;;;;;;;;;;;;;;5110950;28;19908;-80
2023/09/18 09:01:58;;;;;;;;;;;;;;;;;;5095544;28;19919;-80
2023/09/18 09:04:23;;;;;;;;;;;;;;;;;;5094646;28;19915;-80
2023/09/18 09:06:48;;;;;;;;;;;;;;;;;;5094978;28;20276;-80
2023/09/18 09:09:14;;;;;;;;;;;;;;;;;;5095508;28;19915;-80
2023/09/18 09:11:39;;;;;;;;;;;;;;;;;;5094028;28;19912;-80
2023/09/18 09:14:05;;;;;;;;;;;;;;;;;;5111103;27;19908;-81
2023/09/18 09:16:30;;;;;;;;;;;;;;;;;;5110775;28;19916;-80
2023/09/18 09:18:56;;;;;;;;;;;;;;;;;;5094288;28;19914;-79
2023/09/18 09:21:21;;;;;;;;;;;;;;;;;;5094782;28;20362;-81
2023/09/18 09:23:49;;;;;;;;;;;;;;;;;;5110166;28;19908;-79
2023/09/18 09:26:14;;;;;;;;;;;;;;;;;;5095916;28;20331;-79
2023/09/18 09:28:39;;;;;;;;;;;;;;;;;;5094727;28;19961;-81
2023/09/18 09:31:05;;;;;;;;;;;;;;;;;;5094968;28;19935;-80
2023/09/18 09:33:30;;;;;;;;;;;;;;;;;;5094754;28;19915;-81
2023/09/18 09:35:56;;;;;;;;;;;;;;;;;;5094985;28;19924;-79
2023/09/18 09:38:21;;;;;;;;;;;;;;;;;;5093150;28;19908;-81
2023/09/18 09:40:47;;;;;;;;;;;;;;;;;;5094839;28;19912;-82
2023/09/18 09:43:14;;;;;;;;;;;;;;;;;;5094857;28;19967;-81
2023/09/18 09:45:40;;;;;;;;;;;;;;;;;;5094375;28;19919;-81
2023/09/18 09:48:08;;;;;;;;;;;;;;;;;;5094647;28;20379;-81
2023/09/18 09:50:33;;;;;;;;;;;;;;;;;;5095328;28;19912;-81
2023/09/18 09:52:59;;;;;;;;;;;;;;;;;;5093138;28;20393;-81
2023/09/18 09:55:24;;;;;;;;;;;;;;;;;;5093824;28;19912;-81
2023/09/18 09:57:50;;;;;;;;;;;;;;;;;;5094505;28;20394;-81
2023/09/18 10:00:30;;;;;;;;;;;;;;;;;;5093735;28;20306;-81
2023/09/18 10:02:55;;;;;;;;;;;;;;;;;;5092955;28;20362;-81
2023/09/18 10:05:21;;;;;;;;;;;;;;;;;;5102392;28;19958;-81
2023/09/18 10:07:46;;;;;;;;;;;;;;;;;;5094873;28;19980;-81
2023/09/18 10:10:11;;;;;;;;;;;;;;;;;;5093720;28;19927;-81
2023/09/18 10:12:37;;;;;;;;;;;;;;;;;;5094993;28;19995;-81
2023/09/18 10:15:03;;;;;;;;;;;;;;;;;;5094593;28;19908;-81
2023/09/18 10:17:29;;;;;;;;;;;;;;;;;;5092947;28;19919;-80
2023/09/18 10:19:55;;;;;;;;;;;;;;;;;;5094350;28;19908;-81
2023/09/18 10:22:22;;;;;;;;;;;;;;;;;;5096166;27;20401;-81
2023/09/18 10:24:47;;;;;;;;;;;;;;;;;;5092929;28;19908;-80
2023/09/18 10:27:13;;;;;;;;;;;;;;;;;;5091870;28;19926;-81
2023/09/18 10:29:38;;;;;;;;;;;;;;;;;;5093918;28;19908;-81
2023/09/18 10:32:04;;;;;;;;;;;;;;;;;;5094378;28;19912;-81
2023/09/18 10:34:30;;;;;;;;;;;;;;;;;;5092651;28;19914;-82
2023/09/18 10:36:56;;;;;;;;;;;;;;;;;;5095826;28;19998;-80
2023/09/18 10:39:24;;;;;;;;;;;;;;;;;;5085139;28;20006;-80
2023/09/18 10:41:49;;;;;;;;;;;;;;;;;;5109449;28;19966;-82
2023/09/18 10:44:15;;;;;;;;;;;;;;;;;;5092916;28;19948;-82
2023/09/18 10:46:40;;;;;;;;;;;;;;;;;;5091959;28;19912;-80
2023/09/18 10:49:05;;;;;;;;;;;;;;;;;;5093826;28;19938;-82
2023/09/18 10:51:31;;;;;;;;;;;;;;;;;;5108116;28;19956;-80
2023/09/18 10:53:56;;;;;;;;;;;;;;;;;;5079472;28;20010;-81
2023/09/18 10:56:21;;;;;;;;;;;;;;;;;;5094203;28;19918;-82
2023/09/18 10:58:47;;;;;;;;;;;;;;;;;;5075543;28;19908;-81
2023/09/18 11:01:12;;;;;;;;;;;;;;;;;;5093619;28;19912;-82
2023/09/18 11:03:38;;;;;;;;;;;;;;;;;;5105184;28;19908;-84
2023/09/18 11:06:03;;;;;;;;;;;;;;;;;;5092096;28;19916;-81
2023/09/18 11:08:28;;;;;;;;;;;;;;;;;;5093467;28;19915;-81
2023/09/18 11:10:54;;;;;;;;;;;;;;;;;;5093704;28;19912;-81
2023/09/18 11:13:19;;;;;;;;;;;;;;;;;;5093061;28;20002;-81
2023/09/18 11:15:45;;;;;;;;;;;;;;;;;;5092488;28;19919;-82
2023/09/18 11:18:10;;;;;;;;;;;;;;;;;;5093556;28;20355;-80
2023/09/18 11:20:37;;;;;;;;;;;;;;;;;;5093237;28;20049;-80
2023/09/18 11:23:02;;;;;;;;;;;;;;;;;;5090826;28;19908;-80
2023/09/18 11:25:27;;;;;;;;;;;;;;;;;;5093177;28;19919;-81
2023/09/18 11:27:54;;;;;;;;;;;;;;;;;;5093456;28;19950;-82
2023/09/18 11:30:19;;;;;;;;;;;;;;;;;;5091752;28;19915;-83
2023/09/18 11:32:45;;;;;;;;;;;;;;;;;;5093466;28;19915;-82
2023/09/18 11:35:12;;;;;;;;;;;;;;;;;;5091030;28;19911;-81
2023/09/18 11:37:37;;;;;;;;;;;;;;;;;;5093201;28;19908;-82
2023/09/18 11:40:04;;;;;;;;;;;;;;;;;;5108137;28;20312;-82
2023/09/18 11:42:30;;;;;;;;;;;;;;;;;;5093117;28;20378;-82
2023/09/18 11:44:55;;;;;;;;;;;;;;;;;;5091458;28;19912;-80
2023/09/18 11:47:21;;;;;;;;;;;;;;;;;;5108353;28;19967;-82
2023/09/18 11:49:49;;;;;;;;;;;;;;;;;;5092886;28;19912;-82
2023/09/18 11:52:14;;;;;;;;;;;;;;;;;;5093224;28;19919;-81
2023/09/18 11:54:41;;;;;;;;;;;;;;;;;;5092778;28;19911;-82
2023/09/18 11:57:06;;;;;;;;;;;;;;;;;;5093362;28;20389;-81
2023/09/18 11:59:31;;;;;;;;;;;;;;;;;;5093021;28;19998;-82
2023/09/18 12:02:05;;;;;;;;;;;;;;;;;;5092965;28;19908;-82
2023/09/18 12:04:32;;;;;;;;;;;;;;;;;;5091583;28;19911;-81
2023/09/18 12:06:59;;;;;;;;;;;;;;;;;;5092091;28;19961;-81
2023/09/18 12:09:25;;;;;;;;;;;;;;;;;;5079925;28;20459;-80
2023/09/18 12:11:53;;;;;;;;;;;;;;;;;;5091402;28;19965;-82
2023/09/18 12:14:19;;;;;;;;;;;;;;;;;;5092692;28;20326;-80
2023/09/18 12:16:44;;;;;;;;;;;;;;;;;;5092781;28;19907;-81
2023/09/18 12:19:10;;;;;;;;;;;;;;;;;;5093591;28;19972;-81
2023/09/18 12:21:35;;;;;;;;;;;;;;;;;;5092737;28;19908;-81
2023/09/18 12:24:01;;;;;;;;;;;;;;;;;;5103057;28;20010;-81
2023/09/18 12:26:27;;;;;;;;;;;;;;;;;;5085017;28;20295;-81
2023/09/18 12:28:52;;;;;;;;;;;;;;;;;;5092489;28;19927;-81
2023/09/18 12:31:17;;;;;;;;;;;;;;;;;;5091590;28;20010;-82
2023/09/18 12:33:43;;;;;;;;;;;;;;;;;;5091260;28;19918;-81
2023/09/18 12:36:09;;;;;;;;;;;;;;;;;;5092867;28;19918;-83
2023/09/18 12:38:34;;;;;;;;;;;;;;;;;;5092469;28;19916;-81
2023/09/18 12:41:06;;;;;;;;;;;;;;;;;;5092649;28;19912;-81
2023/09/18 12:43:31;;;;;;;;;;;;;;;;;;5102992;28;19912;-81
2023/09/18 12:45:56;;;;;;;;;;;;;;;;;;5091491;28;20610;-83
2023/09/18 12:48:22;;;;;;;;;;;;;;;;;;5111931;28;19934;-81
2023/09/18 12:50:47;;;;;;;;;;;;;;;;;;5078234;28;19908;-80
2023/09/18 12:53:13;;;;;;;;;;;;;;;;;;5096437;28;19912;-81
2023/09/18 12:55:38;;;;;;;;;;;;;;;;;;5096465;28;20620;-81
2023/09/18 12:58:08;;;;;;;;;;;;;;;;;;5094954;28;19916;-80
2023/09/18 13:00:33;;;;;;;;;;;;;;;;;;5095795;28;20252;-81
2023/09/18 13:02:59;;;;;;;;;;;;;;;;;;5104951;28;19919;-81
2023/09/18 13:05:32;;;;;;;;;;;;;;;;;;5096088;28;20406;-81
2023/09/18 13:07:57;;;;;;;;;;;;;;;;;;5103440;27;19918;-82
2023/09/18 13:10:23;;;;;;;;;;;;;;;;;;5095793;28;20291;-81
2023/09/18 13:12:52;;;;;;;;;;;;;;;;;;5097783;28;19916;-81
2023/09/18 13:15:17;;;;;;;;;;;;;;;;;;5081958;28;19978;-80
2023/09/18 13:17:47;;;;;;;;;;;;;;;;;;5095609;28;19919;-80
2023/09/18 13:20:12;;;;;;;;;;;;;;;;;;5094048;28;19990;-80
2023/09/18 13:22:38;;;;;;;;;;;;;;;;;;5093991;28;20418;-81
2023/09/18 13:25:04;;;;;;;;;;;;;;;;;;5110920;28;19908;-81
2023/09/18 13:27:29;;;;;;;;;;;;;;;;;;5102359;28;19926;-81
2023/09/18 13:29:55;;;;;;;;;;;;;;;;;;5101406;28;19908;-81
2023/09/18 13:32:20;;;;;;;;;;;;;;;;;;5095702;28;20393;-81
2023/09/18 13:34:47;;;;;;;;;;;;;;;;;;5093765;28;19908;-80
2023/09/18 13:37:13;;;;;;;;;;;;;;;;;;5094877;28;20337;-80
2023/09/18 13:39:39;;;;;;;;;;;;;;;;;;5094540;28;20387;-80
2023/09/18 13:42:04;;;;;;;;;;;;;;;;;;5100208;28;19918;-80
2023/09/18 13:44:29;;;;;;;;;;;;;;;;;;5082078;28;19914;-80
2023/09/18 13:46:55;;;;;;;;;;;;;;;;;;5094707;28;19912;-80
2023/09/18 13:49:21;;;;;;;;;;;;;;;;;;5094990;28;19935;-83
2023/09/18 13:51:46;;;;;;;;;;;;;;;;;;5094611;28;20077;-80
2023/09/18 13:54:11;;;;;;;;;;;;;;;;;;5094803;28;19991;-81
2023/09/18 13:56:37;;;;;;;;;;;;;;;;;;5100826;27;19912;-81
2023/09/18 13:59:02;;;;;;;;;;;;;;;;;;5092472;28;19912;-81
2023/09/18 14:01:28;;;;;;;;;;;;;;;;;;5094979;28;19912;-81
2023/09/18 14:03:53;;;;;;;;;;;;;;;;;;5093433;28;20397;-81
2023/09/18 14:06:18;;;;;;;;;;;;;;;;;;5109679;28;19919;-82
2023/09/18 14:08:44;;;;;;;;;;;;;;;;;;5095386;28;20371;-81
2023/09/18 14:11:09;;;;;;;;;;;;;;;;;;5100684;28;19919;-81
2023/09/18 14:13:35;;;;;;;;;;;;;;;;;;5094311;28;20313;-81
2023/09/18 14:16:03;;;;;;;;;;;;;;;;;;5094344;28;19912;-81
2023/09/18 14:18:29;;;;;;;;;;;;;;;;;;5072568;28;19912;-79
2023/09/18 14:20:54;;;;;;;;;;;;;;;;;;5082737;28;19934;-82
2023/09/18 14:23:20;;;;;;;;;;;;;;;;;;5091920;28;19915;-81
2023/09/18 14:25:45;;;;;;;;;;;;;;;;;;5092504;28;19919;-79
2023/09/18 14:28:10;;;;;;;;;;;;;;;;;;5092903;28;19971;-79
2023/09/18 14:30:36;;;;;;;;;;;;;;;;;;5075605;28;19912;-81
2023/09/18 14:33:02;;;;;;;;;;;;;;;;;;5092176;28;19970;-82
2023/09/18 14:35:27;;;;;;;;;;;;;;;;;;5094531;28;19915;-80
2023/09/18 14:37:53;;;;;;;;;;;;;;;;;;5092113;28;20019;-80
2023/09/18 14:40:20;;;;;;;;;;;;;;;;;;5093730;28;19912;-78
2023/09/18 14:42:46;;;;;;;;;;;;;;;;;;5093693;28;20295;-78
2023/09/18 14:45:12;;;;;;;;;;;;;;;;;;5092215;28;19912;-82
2023/09/18 14:47:37;;;;;;;;;;;;;;;;;;5092946;28;19908;-79
2023/09/18 14:50:04;;;;;;;;;;;;;;;;;;5093600;28;20295;-81
2023/09/18 14:52:29;;;;;;;;;;;;;;;;;;5099405;28;19911;-81
2023/09/18 14:54:55;;;;;;;;;;;;;;;;;;5109356;28;19918;-80
2023/09/18 14:57:21;;;;;;;;;;;;;;;;;;5093206;28;20008;-80
2023/09/18 14:59:47;;;;;;;;;;;;;;;;;;5095537;28;19953;-80
2023/09/18 15:02:14;;;;;;;;;;;;;;;;;;5091442;28;19908;-80
2023/09/18 15:04:39;;;;;;;;;;;;;;;;;;5090323;28;19916;-80
2023/09/18 15:07:05;;;;;;;;;;;;;;;;;;5093612;28;19919;-80
2023/09/18 15:09:30;;;;;;;;;;;;;;;;;;5091055;28;19911;-80
2023/09/18 15:11:55;;;;;;;;;;;;;;;;;;5091785;28;20002;-81
2023/09/18 15:14:21;;;;;;;;;;;;;;;;;;5093269;28;20676;-80
2023/09/18 15:16:47;;;;;;;;;;;;;;;;;;5092362;28;19908;-77
2023/09/18 15:19:14;;;;;;;;;;;;;;;;;;5092558;28;19923;-79
2023/09/18 15:21:40;;;;;;;;;;;;;;;;;;5068001;28;19994;-81
2023/09/18 15:24:05;;;;;;;;;;;;;;;;;;5095210;28;19919;-80
2023/09/18 15:26:31;;;;;;;;;;;;;;;;;;5092195;28;20386;-80
2023/09/18 15:28:56;;;;;;;;;;;;;;;;;;5091549;28;19946;-81
2023/09/18 15:31:21;;;;;;;;;;;;;;;;;;5090863;28;19993;-81
2023/09/18 15:33:47;;;;;;;;;;;;;;;;;;5091225;28;19912;-81
2023/09/18 15:36:12;;;;;;;;;;;;;;;;;;5090136;28;19908;-81
2023/09/18 15:38:38;;;;;;;;;;;;;;;;;;5100524;27;19916;-81
2023/09/18 15:41:04;;;;;;;;;;;;;;;;;;5090632;28;19915;-81
2023/09/18 15:43:30;;;;;;;;;;;;;;;;;;5089440;28;19923;-81
2023/09/18 15:45:57;;;;;;;;;;;;;;;;;;5087376;28;19947;-81
2023/09/18 15:48:22;;;;;;;;;;;;;;;;;;5087120;28;19969;-81
2023/09/18 15:50:48;;;;;;;;;;;;;;;;;;5089093;28;20344;-80
2023/09/18 15:53:13;;;;;;;;;;;;;;;;;;5088163;28;19918;-79
2023/09/18 15:55:39;;;;;;;;;;;;;;;;;;5094702;28;19919;-79
2023/09/18 15:58:04;;;;;;;;;;;;;;;;;;5082004;28;20351;-81
2023/09/18 16:00:30;;;;;;;;;;;;;;;;;;5095415;28;20295;-80
2023/09/18 16:02:55;;;;;;;;;;;;;;;;;;5084566;28;19911;-81
2023/09/18 16:05:25;;;;;;;;;;;;;;;;;;5081529;28;20027;-79
2023/09/18 16:07:51;;;;;;;;;;;;;;;;;;5075662;28;19919;-81
2023/09/18 16:10:17;;;;;;;;;;;;;;;;;;5066830;28;20391;-80
2023/09/18 16:12:42;;;;;;;;;;;;;;;;;;5073319;28;19955;-80
2023/09/18 16:15:08;;;;;;;;;;;;;;;;;;5081621;28;19912;-79
2023/09/18 16:17:34;;;;;;;;;;;;;;;;;;5070704;28;19912;-80
2023/09/18 16:20:00;;;;;;;;;;;;;;;;;;5076545;28;19920;-80
2023/09/18 16:22:26;;;;;;;;;;;;;;;;;;5079801;28;19915;-81
2023/09/18 16:24:51;;;;;;;;;;;;;;;;;;5084548;28;19911;-80
2023/09/18 16:27:16;;;;;;;;;;;;;;;;;;5077119;28;19920;-80
2023/09/18 16:29:42;;;;;;;;;;;;;;;;;;5090480;28;19912;-80
2023/09/18 16:32:07;;;;;;;;;;;;;;;;;;5091204;28;19916;-80
2023/09/18 16:34:32;;;;;;;;;;;;;;;;;;5076633;28;19912;-81
2023/09/18 16:36:58;;;;;;;;;;;;;;;;;;5100025;28;19983;-81